createdAt,value
2022-10-05T00:01:46.356Z,100803.84
2022-10-05T00:04:19.192Z,100812.25
2022-10-05T00:07:02.325Z,100812.38
2022-10-05T00:09:31.278Z,100806.28
2022-10-05T00:11:58.757Z,100807.91
2022-10-05T00:14:33.317Z,100803.56
2022-10-05T00:17:01.036Z,100803.78
2022-10-05T00:19:34.074Z,100802.81
2022-10-05T00:22:14.870Z,100801.06
2022-10-05T00:24:42.987Z,100796.25
2022-10-05T00:27:18.802Z,100795.75
2022-10-05T00:29:47.231Z,100797.97
2022-10-05T00:32:14.981Z,100794.69
2022-10-05T00:34:42.978Z,100796.87
2022-10-05T00:37:11.590Z,100791.34
2022-10-05T00:39:40.054Z,100784.31
2022-10-05T00:42:24.328Z,100785.56
2022-10-05T00:44:57.792Z,100787.06
2022-10-05T00:47:56.081Z,100788.84
2022-10-05T00:50:36.552Z,100799.22
2022-10-05T00:53:10.107Z,100794.31
2022-10-05T00:56:03.821Z,100797.66
2022-10-05T00:58:41.512Z,100798.91
2022-10-05T01:01:14.821Z,100801.25
2022-10-05T01:03:51.430Z,100799.91
2022-10-05T01:06:24.856Z,100801.53
2022-10-05T01:09:16.484Z,100791.75
2022-10-05T01:11:52.445Z,100792.53
2022-10-05T01:14:41.057Z,100799.13
2022-10-05T01:17:18.545Z,100810.37
2022-10-05T01:20:29.096Z,100806.22
2022-10-05T01:23:02.688Z,100811.13
2022-10-05T01:25:53.255Z,100813.84
2022-10-05T01:28:35.758Z,100816.41
2022-10-05T01:31:21.807Z,100815.09
2022-10-05T01:34:10.577Z,100821.81
2022-10-05T01:36:47.531Z,100831.66
2022-10-05T01:39:48.852Z,100834.22
2022-10-05T01:42:48.532Z,100838.31
2022-10-05T01:45:28.708Z,100826.44
2022-10-05T01:48:22.715Z,100824.06
2022-10-05T01:51:28.197Z,100816.03
2022-10-05T01:54:14.090Z,100814.75
2022-10-05T01:57:32.375Z,100811.81
2022-10-05T02:00:14.817Z,100822.34
2022-10-05T02:02:45.932Z,100825.59
2022-10-05T02:05:29.297Z,100826.81
2022-10-05T02:08:26.557Z,100834.47
2022-10-05T02:11:03.852Z,100837.59
2022-10-05T02:14:11.546Z,100843.34
2022-10-05T02:16:41.864Z,100843.72
2022-10-05T02:19:15.354Z,100848.31
2022-10-05T02:21:46.553Z,100849.56
2022-10-05T02:24:22.193Z,100842.94
2022-10-05T02:26:51.773Z,100837.09
2022-10-05T02:29:22.287Z,100843.16
2022-10-05T02:31:57.558Z,100839.53
2022-10-05T02:34:29.118Z,100844.63
2022-10-05T02:37:12.678Z,100844.59
2022-10-05T02:39:58.851Z,100846.44
2022-10-05T02:42:35.999Z,100855.59
2022-10-05T02:45:03.279Z,100847.06
2022-10-05T02:47:45.699Z,100844.00
2022-10-05T02:50:28.932Z,100847.31
2022-10-05T02:53:02.483Z,100851.31
2022-10-05T02:55:47.957Z,100847.37
2022-10-05T02:58:22.879Z,100849.44
2022-10-05T03:00:58.631Z,100849.47
2022-10-05T03:03:38.156Z,100842.22
2022-10-05T03:06:13.231Z,100848.22
2022-10-05T03:08:53.101Z,100839.25
2022-10-05T03:11:47.821Z,100832.59
2022-10-05T03:14:41.619Z,100835.25
2022-10-05T03:17:25.409Z,100831.25
2022-10-05T03:20:28.358Z,100827.50
2022-10-05T03:23:01.124Z,100817.41
2022-10-05T03:25:45.648Z,100817.94
2022-10-05T03:28:19.593Z,100812.12
2022-10-05T03:31:06.570Z,100810.84
2022-10-05T03:33:43.698Z,100819.84
2022-10-05T03:36:24.341Z,100820.37
2022-10-05T03:39:39.096Z,100815.44
2022-10-05T03:42:20.085Z,100820.78
2022-10-05T03:44:57.549Z,100824.19
2022-10-05T03:47:44.542Z,100828.16
2022-10-05T03:50:46.014Z,100831.50
2022-10-05T03:53:19.130Z,100831.06
2022-10-05T03:55:56.688Z,100838.78
2022-10-05T03:58:39.367Z,100845.81
2022-10-05T04:01:11.371Z,100849.63
2022-10-05T04:03:49.103Z,100849.00
2022-10-05T04:06:21.166Z,100853.78
2022-10-05T04:08:54.107Z,100856.50
2022-10-05T04:11:26.530Z,100850.03
2022-10-05T04:14:02.772Z,100838.75
2022-10-05T04:16:42.663Z,100844.81
2022-10-05T04:19:23.850Z,100848.38
2022-10-05T04:21:56.550Z,100853.34
2022-10-05T04:24:30.689Z,100860.87
2022-10-05T04:27:00.903Z,100860.69
2022-10-05T04:29:42.352Z,100859.81
2022-10-05T04:32:15.634Z,100854.19
2022-10-05T04:34:52.940Z,100850.25
2022-10-05T04:37:28.519Z,100855.25
2022-10-05T04:40:14.696Z,100854.41
2022-10-05T04:42:55.445Z,100851.94
2022-10-05T04:45:36.534Z,100856.28
2022-10-05T04:48:11.456Z,100860.25
2022-10-05T04:51:08.174Z,100857.47
2022-10-05T04:53:37.879Z,100857.47
2022-10-05T04:56:12.454Z,100860.41
2022-10-05T04:58:49.918Z,100868.34
2022-10-05T05:01:48.464Z,100862.94
2022-10-05T05:04:41.356Z,100853.78
2022-10-05T05:07:26.998Z,100853.56
2022-10-05T05:10:19.405Z,100863.78
2022-10-05T05:13:02.218Z,100862.50
2022-10-05T05:15:50.613Z,100857.53
2022-10-05T05:18:46.212Z,100857.75
2022-10-05T05:21:52.012Z,100846.53
2022-10-05T05:24:25.320Z,100857.97
2022-10-05T05:27:11.426Z,100854.41
2022-10-05T05:30:08.531Z,100859.22
2022-10-05T05:32:55.643Z,100861.06
2022-10-05T05:35:32.611Z,100854.19
2022-10-05T05:38:38.532Z,100866.19
2022-10-05T05:41:13.888Z,100872.91
2022-10-05T05:43:58.932Z,100882.06
2022-10-05T05:46:51.224Z,100879.19
2022-10-05T05:49:18.789Z,100889.81
2022-10-05T05:51:59.228Z,100885.84
2022-10-05T05:54:41.248Z,100890.78
2022-10-05T05:57:15.107Z,100900.53
2022-10-05T06:00:00.661Z,100894.75
2022-10-05T06:02:42.343Z,100906.56
2022-10-05T06:05:24.167Z,100908.63
2022-10-05T06:07:52.877Z,100905.47
2022-10-05T06:10:33.894Z,100912.84
2022-10-05T06:13:06.605Z,100917.06
2022-10-05T06:15:41.511Z,100920.94
2022-10-05T06:18:12.184Z,100935.31
2022-10-05T06:20:49.471Z,100942.00
2022-10-05T06:23:48.916Z,100958.87
2022-10-05T06:26:34.834Z,100958.66
2022-10-05T06:29:06.079Z,100964.16
2022-10-05T06:31:59.011Z,100957.91
2022-10-05T06:34:38.787Z,100960.59
2022-10-05T06:37:12.945Z,100958.53
2022-10-05T06:39:43.251Z,100964.56
2022-10-05T06:42:25.675Z,100959.69
2022-10-05T06:45:16.403Z,100971.56
2022-10-05T06:47:52.427Z,100980.25
2022-10-05T06:50:28.808Z,100973.34
2022-10-05T06:53:14.681Z,100972.06
2022-10-05T06:56:01.700Z,100982.78
2022-10-05T06:58:39.671Z,100981.81
2022-10-05T07:01:13.053Z,100985.72
2022-10-05T07:03:47.322Z,100988.84
2022-10-05T07:06:23.549Z,100993.13
2022-10-05T07:09:28.595Z,100997.25
2022-10-05T07:12:07.789Z,100990.56
2022-10-05T07:15:01.926Z,101005.66
2022-10-05T07:17:44.224Z,101002.94
2022-10-05T07:20:15.699Z,100995.06
2022-10-05T07:23:07.839Z,100996.34
2022-10-05T07:25:42.459Z,100991.75
2022-10-05T07:28:14.756Z,100985.87
2022-10-05T07:31:06.853Z,100984.22
2022-10-05T07:34:15.169Z,100984.75
2022-10-05T07:37:20.795Z,100995.56
2022-10-05T07:40:00.427Z,100994.22
2022-10-05T07:42:52.317Z,100998.53
2022-10-05T07:45:30.310Z,100993.75
2022-10-05T07:48:03.785Z,100994.03
2022-10-05T07:50:40.585Z,100998.22
2022-10-05T07:53:19.635Z,100987.25
2022-10-05T07:55:51.398Z,100989.37
2022-10-05T07:58:44.383Z,100999.28
2022-10-05T08:01:32.442Z,100995.75
2022-10-05T08:04:12.604Z,100997.38
2022-10-05T08:07:00.163Z,100998.19
2022-10-05T08:09:49.945Z,100998.97
2022-10-05T08:13:15.000Z,101013.09
2022-10-05T08:15:46.037Z,101008.22
2022-10-05T08:18:37.968Z,101000.44
2022-10-05T08:21:11.843Z,101010.50
2022-10-05T08:23:58.053Z,101006.63
2022-10-05T08:27:01.778Z,100999.00
2022-10-05T08:29:37.994Z,101000.69
2022-10-05T08:32:12.134Z,100985.03
2022-10-05T08:34:48.434Z,100987.13
2022-10-05T08:37:22.304Z,100978.03
2022-10-05T08:39:52.535Z,100981.12
2022-10-05T08:42:42.046Z,100977.66
2022-10-05T08:45:29.531Z,100968.63
2022-10-05T08:48:42.058Z,100975.94
2022-10-05T08:51:47.234Z,100971.31
2022-10-05T08:54:24.112Z,100954.63
2022-10-05T08:57:03.079Z,100957.06
2022-10-05T08:59:52.582Z,100962.25
2022-10-05T09:02:44.806Z,100961.72
2022-10-05T09:05:41.393Z,100964.50
2022-10-05T09:08:24.151Z,100966.69
2022-10-05T09:11:07.184Z,100976.81
2022-10-05T09:13:56.396Z,100979.63
2022-10-05T09:17:01.901Z,100982.72
2022-10-05T09:19:36.426Z,100986.22
2022-10-05T09:22:17.991Z,100990.16
2022-10-05T09:25:08.790Z,100991.78
2022-10-05T09:27:38.088Z,100995.38
2022-10-05T09:30:27.020Z,100999.22
2022-10-05T09:33:26.107Z,101002.75
2022-10-05T09:36:09.135Z,101000.88
2022-10-05T09:39:10.854Z,100993.13
2022-10-05T09:41:55.109Z,100994.47
2022-10-05T09:45:00.536Z,100992.22
2022-10-05T09:47:46.657Z,100992.44
2022-10-05T09:50:26.509Z,101004.28
2022-10-05T09:52:58.744Z,101003.88
2022-10-05T09:55:48.278Z,100984.88
2022-10-05T09:58:33.321Z,100992.47
2022-10-05T10:01:33.031Z,100985.22
2022-10-05T10:04:25.545Z,100977.50
2022-10-05T10:07:36.170Z,100988.84
2022-10-05T10:10:13.004Z,100990.69
2022-10-05T10:13:01.963Z,100984.72
2022-10-05T10:15:40.613Z,100981.53
2022-10-05T10:18:34.766Z,100986.88
2022-10-05T10:21:12.853Z,100988.75
2022-10-05T10:24:15.174Z,100987.78
2022-10-05T10:26:45.785Z,100991.19
2022-10-05T10:29:22.020Z,100974.75
2022-10-05T10:31:58.747Z,100982.13
2022-10-05T10:35:04.497Z,100986.34
2022-10-05T10:38:17.333Z,100982.72
2022-10-05T10:40:56.763Z,100975.06
2022-10-05T10:43:34.505Z,100976.50
2022-10-05T10:46:20.982Z,100982.63
2022-10-05T10:48:51.574Z,100988.63
2022-10-05T10:51:30.707Z,100981.94
2022-10-05T10:54:06.340Z,100987.75
2022-10-05T10:57:06.201Z,100981.75
2022-10-05T11:00:07.750Z,100983.97
2022-10-05T11:02:59.984Z,100986.09
2022-10-05T11:05:49.215Z,100979.66
2022-10-05T11:08:34.168Z,100977.19
2022-10-05T11:11:19.961Z,100983.25
2022-10-05T11:14:21.234Z,100988.12
2022-10-05T11:17:07.545Z,100979.41
2022-10-05T11:20:12.708Z,100970.44
2022-10-05T11:23:05.274Z,100968.41
2022-10-05T11:25:44.266Z,100969.78
2022-10-05T11:28:41.380Z,100970.31
2022-10-05T11:31:40.939Z,100966.34
2022-10-05T11:34:20.639Z,100965.06
2022-10-05T11:37:04.364Z,100959.19
2022-10-05T11:39:38.832Z,100947.41
2022-10-05T11:42:28.494Z,100951.25
2022-10-05T11:45:24.168Z,100945.59
2022-10-05T11:47:54.363Z,100940.31
2022-10-05T11:50:26.887Z,100932.44
2022-10-05T11:52:59.004Z,100930.66
2022-10-05T11:55:53.542Z,100934.50
2022-10-05T11:58:27.456Z,100928.31
2022-10-05T12:01:06.626Z,100925.81
2022-10-05T12:03:58.874Z,100923.62
2022-10-05T12:06:38.441Z,100919.63
2022-10-05T12:09:35.325Z,100911.91
2022-10-05T12:12:29.618Z,100904.78
2022-10-05T12:15:03.858Z,100911.47
2022-10-05T12:17:40.723Z,100912.41
2022-10-05T12:20:14.522Z,100908.59
2022-10-05T12:22:47.036Z,100907.25
2022-10-05T12:25:35.975Z,100907.75
2022-10-05T12:28:09.246Z,100909.06
2022-10-05T12:31:14.578Z,100911.37
2022-10-05T12:34:06.607Z,100907.16
2022-10-05T12:37:05.983Z,100905.38
2022-10-05T12:39:49.507Z,100901.72
2022-10-05T12:42:19.958Z,100909.06
2022-10-05T12:45:14.900Z,100902.41
2022-10-05T12:47:53.813Z,100896.88
2022-10-05T12:50:28.314Z,100894.06
2022-10-05T12:53:04.981Z,100882.28
2022-10-05T12:55:54.174Z,100881.63
2022-10-05T12:58:29.723Z,100882.84
2022-10-05T13:01:08.777Z,100884.78
2022-10-05T13:03:38.863Z,100876.69
2022-10-05T13:06:18.104Z,100868.31
2022-10-05T13:08:49.246Z,100873.91
2022-10-05T13:11:49.078Z,100864.19
2022-10-05T13:14:43.751Z,100868.72
2022-10-05T13:17:21.466Z,100878.03
2022-10-05T13:20:02.457Z,100876.94
2022-10-05T13:22:43.862Z,100882.44
2022-10-05T13:25:17.597Z,100883.38
2022-10-05T13:28:09.686Z,100873.22
2022-10-05T13:30:39.690Z,100865.94
2022-10-05T13:33:20.444Z,100863.28
2022-10-05T13:36:05.311Z,100866.19
2022-10-05T13:38:42.193Z,100864.81
2022-10-05T13:41:28.090Z,100860.00
2022-10-05T13:44:13.887Z,100859.41
2022-10-05T13:46:45.667Z,100863.44
2022-10-05T13:49:32.487Z,100865.44
2022-10-05T13:52:18.868Z,100863.22
2022-10-05T13:54:53.743Z,100861.34
2022-10-05T13:57:45.210Z,100864.16
2022-10-05T14:00:25.687Z,100864.84
2022-10-05T14:02:56.730Z,100863.97
2022-10-05T14:05:25.147Z,100867.34
2022-10-05T14:07:58.560Z,100860.16
2022-10-05T14:10:31.450Z,100856.53
2022-10-05T14:12:59.329Z,100855.44
2022-10-05T14:15:32.644Z,100862.59
2022-10-05T14:17:59.947Z,100859.56
2022-10-05T14:20:34.162Z,100855.41
2022-10-05T14:23:05.622Z,100856.31
2022-10-05T14:25:50.141Z,100856.47
2022-10-05T14:28:32.945Z,100861.41
2022-10-05T14:31:13.784Z,100860.59
2022-10-05T14:33:41.359Z,100872.94
2022-10-05T14:36:22.411Z,100864.25
2022-10-05T14:39:02.075Z,100859.81
2022-10-05T14:41:35.219Z,100864.53
2022-10-05T14:44:02.468Z,100860.25
2022-10-05T14:46:34.073Z,100857.00
2022-10-05T14:49:25.698Z,100858.16
2022-10-05T14:51:54.819Z,100852.50
2022-10-05T14:54:33.277Z,100856.12
2022-10-05T14:57:10.101Z,100858.31
2022-10-05T15:00:08.127Z,100849.91
2022-10-05T15:03:23.937Z,100855.50
2022-10-05T15:05:58.855Z,100861.69
2022-10-05T15:08:55.075Z,100854.34
2022-10-05T15:11:42.632Z,100858.62
2022-10-05T15:14:23.960Z,100860.03
2022-10-05T15:16:58.942Z,100855.16
2022-10-05T15:19:52.721Z,100851.81
2022-10-05T15:22:32.183Z,100844.44
2022-10-05T15:25:16.396Z,100831.72
2022-10-05T15:27:50.959Z,100827.69
2022-10-05T15:30:18.667Z,100825.44
2022-10-05T15:33:04.375Z,100825.97
2022-10-05T15:35:49.502Z,100831.56
2022-10-05T15:38:25.683Z,100839.16
2022-10-05T15:41:02.575Z,100840.81
2022-10-05T15:43:41.608Z,100828.97
2022-10-05T15:46:34.484Z,100816.91
2022-10-05T15:49:17.871Z,100818.00
2022-10-05T15:51:59.461Z,100818.84
2022-10-05T15:54:41.965Z,100818.28
2022-10-05T15:57:21.508Z,100830.09
2022-10-05T16:00:14.082Z,100823.72
2022-10-05T16:02:45.317Z,100833.16
2022-10-05T16:05:47.430Z,100823.78
2022-10-05T16:08:51.838Z,100825.72
2022-10-05T16:11:46.987Z,100825.97
2022-10-05T16:14:17.420Z,100836.84
2022-10-05T16:16:59.952Z,100822.09
2022-10-05T16:19:35.551Z,100830.06
2022-10-05T16:22:18.497Z,100832.44
2022-10-05T16:24:58.445Z,100833.81
2022-10-05T16:27:44.803Z,100841.50
2022-10-05T16:30:20.867Z,100850.84
2022-10-05T16:32:59.255Z,100847.53
2022-10-05T16:35:53.001Z,100844.19
2022-10-05T16:38:42.001Z,100852.72
2022-10-05T16:41:24.826Z,100854.66
2022-10-05T16:44:07.974Z,100859.78
2022-10-05T16:46:52.097Z,100860.19
2022-10-05T16:49:48.843Z,100866.84
2022-10-05T16:52:19.337Z,100854.88
2022-10-05T16:54:50.345Z,100862.19
2022-10-05T16:57:22.069Z,100861.00
2022-10-05T17:00:01.567Z,100860.19
2022-10-05T17:02:33.651Z,100868.94
2022-10-05T17:05:20.071Z,100869.38
2022-10-05T17:08:10.050Z,100870.19
2022-10-05T17:11:02.113Z,100877.53
2022-10-05T17:14:08.667Z,100875.94
2022-10-05T17:16:41.827Z,100890.69
2022-10-05T17:19:21.640Z,100891.66
2022-10-05T17:22:00.488Z,100885.69
2022-10-05T17:24:49.425Z,100886.94
2022-10-05T17:27:19.425Z,100893.00
2022-10-05T17:29:51.861Z,100890.59
2022-10-05T17:32:19.158Z,100890.72
2022-10-05T17:35:18.210Z,100892.72
2022-10-05T17:38:25.110Z,100900.00
2022-10-05T17:41:11.362Z,100893.03
2022-10-05T17:43:38.804Z,100892.00
2022-10-05T17:46:10.099Z,100893.94
2022-10-05T17:49:11.942Z,100898.09
2022-10-05T17:51:58.251Z,100904.53
2022-10-05T17:54:48.195Z,100909.06
2022-10-05T17:57:20.138Z,100910.56
2022-10-05T17:59:58.700Z,100906.97
2022-10-05T18:02:37.491Z,100910.66
2022-10-05T18:05:17.130Z,100894.97
2022-10-05T18:07:50.302Z,100895.03
2022-10-05T18:10:28.817Z,100895.44
2022-10-05T18:12:59.000Z,100896.50
2022-10-05T18:15:26.458Z,100893.34
2022-10-05T18:18:20.760Z,100893.81
2022-10-05T18:21:32.511Z,100890.53
2022-10-05T18:23:59.805Z,100893.81
2022-10-05T18:26:53.375Z,100902.03
2022-10-05T18:29:47.358Z,100901.25
2022-10-05T18:32:23.430Z,100894.44
2022-10-05T18:35:02.003Z,100901.19
2022-10-05T18:37:59.505Z,100899.81
2022-10-05T18:40:38.310Z,100904.00
2022-10-05T18:43:29.904Z,100899.62
2022-10-05T18:46:15.736Z,100896.91
2022-10-05T18:49:02.526Z,100901.59
2022-10-05T18:51:52.817Z,100896.75
2022-10-05T18:54:38.658Z,100888.19
2022-10-05T18:57:30.147Z,100894.37
2022-10-05T19:00:06.794Z,100885.28
2022-10-05T19:02:38.683Z,100895.25
2022-10-05T19:05:52.930Z,100890.78
2022-10-05T19:08:29.393Z,100894.44
2022-10-05T19:11:12.859Z,100890.66
2022-10-05T19:14:19.106Z,100899.34
2022-10-05T19:17:24.234Z,100901.50
2022-10-05T19:20:10.506Z,100904.91
2022-10-05T19:23:02.414Z,100901.09
2022-10-05T19:25:46.263Z,100898.22
2022-10-05T19:28:21.228Z,100900.34
2022-10-05T19:30:55.084Z,100910.38
2022-10-05T19:33:42.503Z,100913.75
2022-10-05T19:36:15.714Z,100908.06
2022-10-05T19:39:08.161Z,100902.53
2022-10-05T19:41:44.707Z,100906.16
2022-10-05T19:44:25.140Z,100904.75
2022-10-05T19:47:18.226Z,100905.78
2022-10-05T19:49:57.344Z,100905.31
2022-10-05T19:52:36.490Z,100907.13
2022-10-05T19:55:32.138Z,100906.91
2022-10-05T19:58:01.293Z,100916.13
2022-10-05T20:00:34.549Z,100917.66
2022-10-05T20:03:16.547Z,100911.25
2022-10-05T20:05:44.213Z,100914.53
2022-10-05T20:08:17.630Z,100918.53
2022-10-05T20:10:46.275Z,100923.53
2022-10-05T20:13:22.274Z,100931.72
2022-10-05T20:16:26.485Z,100941.75
2022-10-05T20:19:12.724Z,100944.22
2022-10-05T20:21:47.669Z,100932.06
2022-10-05T20:24:16.564Z,100935.37
2022-10-05T20:27:16.034Z,100937.00
2022-10-05T20:29:44.786Z,100936.44
2022-10-05T20:32:18.108Z,100937.28
2022-10-05T20:34:47.877Z,100942.78
2022-10-05T20:37:17.561Z,100947.97
2022-10-05T20:39:45.013Z,100952.34
2022-10-05T20:42:12.805Z,100949.09
2022-10-05T20:44:40.578Z,100943.31
2022-10-05T20:47:10.996Z,100941.19
2022-10-05T20:49:41.134Z,100938.00
2022-10-05T20:52:13.262Z,100937.69
2022-10-05T20:54:41.462Z,100943.84
2022-10-05T20:57:09.508Z,100942.44
2022-10-05T20:59:37.362Z,100942.94
2022-10-05T21:02:05.659Z,100932.34
2022-10-05T21:04:40.944Z,100935.50
2022-10-05T21:07:09.062Z,100941.41
2022-10-05T21:09:38.478Z,100942.41
2022-10-05T21:12:05.995Z,100945.53
2022-10-05T21:14:36.188Z,100944.22
2022-10-05T21:17:04.675Z,100946.63
2022-10-05T21:19:38.146Z,100944.16
2022-10-05T21:22:10.121Z,100951.94
2022-10-05T21:24:39.026Z,100940.72
2022-10-05T21:27:07.340Z,100942.91
2022-10-05T21:29:36.494Z,100945.72
2022-10-05T21:32:08.405Z,100945.50
2022-10-05T21:34:36.110Z,100947.81
2022-10-05T21:37:03.548Z,100947.72
2022-10-05T21:39:31.038Z,100945.41
2022-10-05T21:41:58.636Z,100938.63
2022-10-05T21:44:25.987Z,100937.47
2022-10-05T21:46:53.289Z,100941.34
2022-10-05T21:49:20.940Z,100940.66
2022-10-05T21:51:48.346Z,100942.19
2022-10-05T21:54:18.270Z,100937.31
2022-10-05T21:56:51.978Z,100935.31
2022-10-05T21:59:21.445Z,100937.22
2022-10-05T22:01:49.166Z,100943.72
2022-10-05T22:04:16.890Z,100943.97
2022-10-05T22:06:44.227Z,100937.34
2022-10-05T22:09:12.386Z,100935.78
2022-10-05T22:11:40.155Z,100939.91
2022-10-05T22:14:07.506Z,100941.34
2022-10-05T22:16:36.702Z,100938.50
2022-10-05T22:19:06.287Z,100930.78
2022-10-05T22:21:37.952Z,100939.81
2022-10-05T22:24:05.757Z,100925.72
2022-10-05T22:26:34.770Z,100923.44
2022-10-05T22:29:02.747Z,100921.22
2022-10-05T22:31:30.469Z,100916.06
2022-10-05T22:33:57.877Z,100925.81
2022-10-05T22:36:25.272Z,100928.91
2022-10-05T22:38:53.007Z,100921.84
2022-10-05T22:41:20.560Z,100918.09
2022-10-05T22:43:50.246Z,100919.66
2022-10-05T22:46:18.344Z,100920.84
2022-10-05T22:48:45.761Z,100921.97
2022-10-05T22:51:13.106Z,100924.09
2022-10-05T22:53:40.779Z,100917.63
2022-10-05T22:56:11.163Z,100916.44
2022-10-05T22:58:39.309Z,100922.38
2022-10-05T23:01:10.467Z,100915.97
2022-10-05T23:03:37.899Z,100913.94
2022-10-05T23:06:09.490Z,100913.72
2022-10-05T23:08:37.923Z,100896.91
2022-10-05T23:11:13.532Z,100898.91
2022-10-05T23:13:41.568Z,100896.62
2022-10-05T23:16:11.086Z,100902.16
2022-10-05T23:18:38.818Z,100899.84
2022-10-05T23:21:09.823Z,100903.81
2022-10-05T23:23:41.792Z,100892.41
2022-10-05T23:26:11.085Z,100895.94
2022-10-05T23:28:49.082Z,100888.81
2022-10-05T23:31:22.527Z,100891.19
2022-10-05T23:33:49.947Z,100896.41
2022-10-05T23:36:22.911Z,100885.47
2022-10-05T23:38:50.363Z,100887.06
2022-10-05T23:41:18.038Z,100893.12
2022-10-05T23:43:45.941Z,100894.59
2022-10-05T23:46:14.031Z,100888.03
2022-10-05T23:48:41.665Z,100892.72
2022-10-05T23:51:11.892Z,100892.00
2022-10-05T23:53:39.344Z,100892.50
2022-10-05T23:56:07.177Z,100889.06
2022-10-05T23:58:34.519Z,100899.13
